Time;durP1;ratioP1;P1;durP2;ratioP2;P2;SDS_P1;SDS_P2;PMS_P1;PMS_P2;Temp;Humidity;BMP_temperature;BMP_pressure;BME280_temperature;BME280_humidity;BME280_pressure;Samples;Min_cycle;Max_cycle;Signal;HPM_P1;HPM_P2
2022/01/21 00:01:37;;;;;;;;;6.50;4.00;;;;;-143.72;100.00;60182.97;5051213;28;45935;-83
2022/01/21 00:04:03;;;;;;;;;11.25;5.75;;;;;-143.72;100.00;60182.97;5054296;28;47574;-82
2022/01/21 00:06:28;;;;;;;;;2.00;2.00;;;;;-143.72;100.00;60182.97;5050604;28;45324;-83
2022/01/21 00:08:54;;;;;;;;;4.25;4.25;;;;;-143.72;100.00;60182.97;5036236;28;46243;-83
2022/01/21 00:11:22;;;;;;;;;6.00;3.25;;;;;-143.72;100.00;60182.97;5055503;28;46612;-82
2022/01/21 00:13:48;;;;;;;;;4.00;4.00;;;;;-143.72;100.00;60182.97;5052623;28;45340;-83
2022/01/21 00:16:19;;;;;;;;;7.75;3.50;;;;;-143.72;100.00;60182.97;5036150;28;45294;-83
2022/01/21 00:18:54;;;;;;;;;2.75;2.75;;;;;-143.72;100.00;60182.97;5054612;28;45467;-83
2022/01/21 00:32:16;;;;;;;;;4.75;3.75;;;;;-143.72;100.00;60182.97;5048178;28;45471;-83
2022/01/21 00:34:42;;;;;;;;;3.00;1.75;;;;;-143.72;100.00;60182.97;5050622;28;45325;-83
2022/01/21 00:37:07;;;;;;;;;7.50;2.00;;;;;-143.72;100.00;60182.97;5049611;28;47483;-83
2022/01/21 00:39:34;;;;;;;;;2.50;1.00;;;;;-143.72;100.00;60182.97;5053512;28;45391;-83
2022/01/21 00:44:26;;;;;;;;;2.50;2.25;;;;;-143.72;100.00;60182.97;5054224;28;45474;-83
2022/01/21 00:46:52;;;;;;;;;3.00;0.50;;;;;-143.72;100.00;60182.97;5056005;28;45404;-82
2022/01/21 00:49:17;;;;;;;;;1.00;1.00;;;;;-143.72;100.00;60182.97;5048621;28;45438;-82
2022/01/21 00:51:42;;;;;;;;;3.25;0.75;;;;;-143.72;100.00;60182.97;5042934;28;46789;-83
2022/01/21 00:54:08;;;;;;;;;1.00;1.00;;;;;-143.72;100.00;60182.97;5033378;28;45465;-82
2022/01/21 00:56:33;;;;;;;;;2.00;1.00;;;;;-143.72;100.00;60182.97;5053373;28;45427;-83
2022/01/21 00:58:59;;;;;;;;;6.50;2.50;;;;;-143.72;100.00;60182.97;5053800;28;46198;-83
2022/01/21 01:01:24;;;;;;;;;4.25;2.25;;;;;-143.72;100.00;60182.97;5052979;28;45438;-82
2022/01/21 01:03:50;;;;;;;;;8.00;3.75;;;;;-143.72;100.00;60182.97;5054012;28;45262;-83
2022/01/21 01:06:15;;;;;;;;;7.00;1.00;;;;;-143.72;100.00;60182.97;5049378;28;45386;-82
2022/01/21 01:08:41;;;;;;;;;4.00;2.50;;;;;-143.72;100.00;60182.97;5054043;28;46154;-83
2022/01/21 01:21:44;;;;;;;;;6.00;5.00;;;;;-143.72;100.00;60182.97;5045756;28;45482;-82
2022/01/21 01:29:24;;;;;;;;;4.75;1.25;;;;;-143.72;100.00;60182.97;5050122;28;45440;-82
2022/01/21 01:31:51;;;;;;;;;3.50;1.00;;;;;-143.72;100.00;60182.97;5054236;28;45535;-83
2022/01/21 01:34:17;;;;;;;;;2.75;1.75;;;;;-143.72;100.00;60182.97;5049404;28;45411;-82
2022/01/21 01:36:44;;;;;;;;;1.00;1.00;;;;;-143.72;100.00;60182.97;5051259;28;45699;-82
2022/01/21 01:39:39;;;;;;;;;4.00;1.00;;;;;-143.72;100.00;60182.97;5052059;28;47299;-83
2022/01/21 01:42:47;;;;;;;;;3.00;2.00;;;;;-143.72;100.00;60182.97;5053175;28;45415;-83
2022/01/21 01:50:48;;;;;;;;;1.50;1.25;;;;;-143.72;100.00;60182.97;4996146;28;46356;-81
2022/01/21 01:53:14;;;;;;;;;3.75;1.75;;;;;-143.72;100.00;60182.97;5012272;28;45425;-83
2022/01/21 01:55:40;;;;;;;;;2.50;1.00;;;;;-143.72;100.00;60182.97;5000148;28;50610;-83
2022/01/21 01:58:05;;;;;;;;;2.00;1.00;;;;;-143.72;100.00;60182.97;4988902;28;45577;-83
2022/01/21 02:00:31;;;;;;;;;3.00;0.00;;;;;-143.72;100.00;60182.97;4986012;28;48394;-82
2022/01/21 02:03:07;;;;;;;;;2.25;2.25;;;;;-143.72;100.00;60182.97;5011397;28;45671;-82
2022/01/21 02:05:33;;;;;;;;;2.25;2.00;;;;;-143.72;100.00;60182.97;5011415;28;45908;-83
2022/01/21 02:07:58;;;;;;;;;2.50;2.00;;;;;-143.72;100.00;60182.97;5012270;28;45361;-82
2022/01/21 02:10:24;;;;;;;;;2.25;1.50;;;;;-143.72;100.00;60182.97;5010985;28;45579;-83
2022/01/21 02:12:50;;;;;;;;;3.00;2.75;;;;;-143.72;100.00;60182.97;5011094;28;45480;-83
2022/01/21 02:15:16;;;;;;;;;4.50;0.50;;;;;-143.72;100.00;60182.97;5001558;28;45551;-84
2022/01/21 02:22:52;;;;;;;;;3.25;1.00;;;;;-143.72;100.00;60182.97;5007643;28;45565;-83
2022/01/21 02:25:20;;;;;;;;;2.25;2.00;;;;;-143.72;100.00;60182.97;5031949;28;45515;-83
2022/01/21 02:27:51;;;;;;;;;2.75;1.50;;;;;-143.72;100.00;60182.97;5021846;28;45681;-83
2022/01/21 02:30:19;;;;;;;;;5.00;1.75;;;;;-143.72;100.00;60182.97;5043355;28;46249;-83
2022/01/21 02:32:47;;;;;;;;;1.00;1.00;;;;;-143.72;100.00;60182.97;5040687;28;45330;-83
2022/01/21 02:35:13;;;;;;;;;3.50;0.00;;;;;-143.72;100.00;60182.97;5053842;28;45356;-83
2022/01/21 02:37:39;;;;;;;;;3.50;1.00;;;;;-143.72;100.00;60182.97;5034953;28;45519;-83
2022/01/21 02:40:06;;;;;;;;;0.25;0.00;;;;;-143.72;100.00;60182.97;5052587;28;46014;-83
2022/01/21 02:42:32;;;;;;;;;3.00;0.00;;;;;-143.72;100.00;60182.97;5053085;28;45493;-83
2022/01/21 02:44:57;;;;;;;;;2.25;1.75;;;;;-143.72;100.00;60182.97;5052086;28;45416;-83
2022/01/21 02:47:23;;;;;;;;;1.00;1.00;;;;;-143.72;100.00;60182.97;5053892;28;45423;-82
2022/01/21 02:49:48;;;;;;;;;1.50;1.00;;;;;-143.72;100.00;60182.97;5034892;28;47149;-83
2022/01/21 02:52:17;;;;;;;;;3.00;1.50;;;;;-143.72;100.00;60182.97;5051885;28;45548;-83
2022/01/21 02:54:43;;;;;;;;;2.25;0.50;;;;;-143.72;100.00;60182.97;5052421;28;45478;-83
2022/01/21 02:57:09;;;;;;;;;2.50;0.00;;;;;-143.72;100.00;60182.97;5045491;28;45432;-82
2022/01/21 02:59:35;;;;;;;;;7.00;1.00;;;;;-143.72;100.00;60182.97;5052393;28;45828;-83
2022/01/21 03:02:01;;;;;;;;;1.00;1.00;;;;;-143.72;100.00;60182.97;5057488;28;45391;-82
2022/01/21 03:04:38;;;;;;;;;1.00;1.00;;;;;-143.72;100.00;60182.97;5037983;28;45396;-83
2022/01/21 03:07:04;;;;;;;;;2.00;2.00;;;;;-143.72;100.00;60182.97;5046042;28;45360;-83
2022/01/21 03:09:29;;;;;;;;;4.25;3.00;;;;;-143.72;100.00;60182.97;5051114;28;45822;-83
2022/01/21 03:11:55;;;;;;;;;6.00;2.00;;;;;-143.72;100.00;60182.97;5056168;28;45546;-83
2022/01/21 03:14:20;;;;;;;;;3.00;2.00;;;;;-143.72;100.00;60182.97;5057313;28;45405;-82
2022/01/21 03:16:46;;;;;;;;;1.00;0.00;;;;;-143.72;100.00;60182.97;5057245;28;45391;-82
2022/01/21 03:19:11;;;;;;;;;2.50;1.00;;;;;-143.72;100.00;60182.97;5055621;28;46210;-82
2022/01/21 03:21:37;;;;;;;;;5.00;1.00;;;;;-143.72;100.00;60182.97;5033381;28;45746;-82
2022/01/21 03:24:04;;;;;;;;;2.75;2.00;;;;;-143.72;100.00;60182.97;5035555;28;45460;-83
2022/01/21 03:26:29;;;;;;;;;6.00;1.00;;;;;-143.72;100.00;60182.97;5056122;28;45399;-83
2022/01/21 03:28:58;;;;;;;;;1.00;1.00;;;;;-143.72;100.00;60182.97;5056677;28;46057;-83
2022/01/21 03:31:24;;;;;;;;;1.00;1.00;;;;;-143.72;100.00;60182.97;5056133;28;45459;-82
2022/01/21 03:33:49;;;;;;;;;4.75;1.00;;;;;-143.72;100.00;60182.97;5053993;28;45323;-82
2022/01/21 03:36:15;;;;;;;;;1.50;1.50;;;;;-143.72;100.00;60182.97;5047284;28;45412;-82
2022/01/21 03:38:41;;;;;;;;;1.00;1.00;;;;;-143.72;100.00;60182.97;5056329;28;46020;-82
2022/01/21 03:41:07;;;;;;;;;3.00;2.00;;;;;-143.72;100.00;60182.97;5057166;28;45542;-83
2022/01/21 03:43:33;;;;;;;;;2.75;1.25;;;;;-143.72;100.00;60182.97;5046363;28;45842;-83
2022/01/21 03:45:59;;;;;;;;;2.00;2.00;;;;;-143.72;100.00;60182.97;5050068;28;45376;-82
2022/01/21 03:48:25;;;;;;;;;3.50;2.00;;;;;-143.72;100.00;60182.97;5054759;28;46494;-82
2022/01/21 03:50:51;;;;;;;;;6.00;2.75;;;;;-143.72;100.00;60182.97;5036850;28;45534;-83
2022/01/21 03:53:16;;;;;;;;;5.50;0.00;;;;;-143.72;100.00;60182.97;5038992;28;45420;-82
2022/01/21 03:55:42;;;;;;;;;3.00;1.25;;;;;-143.72;100.00;60182.97;5055797;28;45825;-82
2022/01/21 03:58:10;;;;;;;;;1.00;1.00;;;;;-143.72;100.00;60182.97;5053948;28;45507;-83
2022/01/21 04:00:39;;;;;;;;;7.00;3.00;;;;;-143.72;100.00;60182.97;5054006;28;45364;-82
2022/01/21 04:03:04;;;;;;;;;7.25;3.00;;;;;-143.72;100.00;60182.97;5053923;28;45424;-82
2022/01/21 04:05:31;;;;;;;;;1.50;1.50;;;;;-143.72;100.00;60182.97;5029181;28;45366;-82
2022/01/21 04:07:57;;;;;;;;;2.75;1.00;;;;;-143.72;100.00;60182.97;5056703;28;45730;-83
2022/01/21 04:10:23;;;;;;;;;2.00;2.00;;;;;-143.72;100.00;60182.97;5054030;28;45454;-82
2022/01/21 04:12:48;;;;;;;;;5.00;1.00;;;;;-143.72;100.00;60182.97;5048842;28;45360;-82
2022/01/21 04:15:14;;;;;;;;;2.50;1.75;;;;;-143.72;100.00;60182.97;5055554;28;45447;-83
2022/01/21 04:17:40;;;;;;;;;3.25;1.00;;;;;-143.72;100.00;60182.97;5054634;28;47144;-82
2022/01/21 04:20:07;;;;;;;;;4.75;1.50;;;;;-143.72;100.00;60182.97;5056592;28;45412;-82
2022/01/21 04:22:33;;;;;;;;;6.50;2.00;;;;;-143.72;100.00;60182.97;5034006;28;45338;-83
2022/01/21 04:25:00;;;;;;;;;9.00;1.75;;;;;-143.72;100.00;60182.97;5048323;28;45545;-83
2022/01/21 04:27:26;;;;;;;;;3.50;2.00;;;;;-143.72;100.00;60182.97;5044124;28;45407;-83
2022/01/21 04:29:51;;;;;;;;;6.75;1.75;;;;;-143.72;100.00;60182.97;5054539;28;45527;-83
2022/01/21 04:32:16;;;;;;;;;1.75;1.75;;;;;-143.72;100.00;60182.97;5055834;28;45460;-83
2022/01/21 04:34:42;;;;;;;;;6.00;2.00;;;;;-143.72;100.00;60182.97;5052941;28;45288;-82
2022/01/21 04:37:11;;;;;;;;;5.25;1.00;;;;;-143.72;100.00;60182.97;5055528;28;45482;-83
2022/01/21 04:39:42;;;;;;;;;1.75;1.75;;;;;-143.72;100.00;60182.97;5050978;28;45724;-82
2022/01/21 04:47:31;;;;;;;;;5.25;2.00;;;;;-143.72;100.00;60182.97;5032269;28;45527;-82
2022/01/21 04:49:57;;;;;;;;;1.00;1.00;;;;;-143.72;100.00;60182.97;5035712;28;45435;-83
2022/01/21 04:52:23;;;;;;;;;2.00;1.00;;;;;-143.72;100.00;60182.97;5035213;28;45352;-83
2022/01/21 04:54:49;;;;;;;;;1.50;1.50;;;;;-143.72;100.00;60182.97;5032339;28;45408;-83
2022/01/21 04:57:15;;;;;;;;;4.50;2.00;;;;;-143.72;100.00;60182.97;5034502;28;46387;-82
2022/01/21 04:59:40;;;;;;;;;2.00;1.00;;;;;-143.72;100.00;60182.97;5033226;28;45697;-83
2022/01/21 05:02:07;;;;;;;;;2.75;1.00;;;;;-143.72;100.00;60182.97;5018164;28;45539;-83
2022/01/21 05:04:32;;;;;;;;;2.00;1.00;;;;;-143.72;100.00;60182.97;5034000;28;45453;-83
2022/01/21 05:06:58;;;;;;;;;4.50;1.00;;;;;-143.72;100.00;60182.97;5033881;28;46079;-83
2022/01/21 05:09:30;;;;;;;;;2.00;2.00;;;;;-143.72;100.00;60182.97;5034197;28;45452;-83
2022/01/21 05:11:56;;;;;;;;;4.75;1.00;;;;;-143.72;100.00;60182.97;5034558;28;45489;-84
2022/01/21 05:14:26;;;;;;;;;6.00;2.00;;;;;-143.72;100.00;60182.97;5034884;28;45468;-82
2022/01/21 05:17:00;;;;;;;;;2.00;1.00;;;;;-143.72;100.00;60182.97;5034146;28;45847;-82
2022/01/21 05:19:26;;;;;;;;;5.00;1.75;;;;;-143.72;100.00;60182.97;5033836;28;45745;-83
2022/01/21 05:21:51;;;;;;;;;5.50;2.50;;;;;-143.72;100.00;60182.97;5034087;28;45388;-83
2022/01/21 05:24:21;;;;;;;;;2.50;2.00;;;;;-143.72;100.00;60182.97;5033246;28;45420;-83
2022/01/21 05:26:57;;;;;;;;;1.25;0.75;;;;;-143.72;100.00;60182.97;5034248;28;46302;-83
2022/01/21 05:29:25;;;;;;;;;1.75;1.75;;;;;-143.72;100.00;60182.97;5028856;28;45349;-82
2022/01/21 05:31:51;;;;;;;;;2.00;2.00;;;;;-143.72;100.00;60182.97;5033497;28;45523;-83
2022/01/21 05:34:17;;;;;;;;;0.00;0.00;;;;;-143.72;100.00;60182.97;5033749;28;45369;-82
2022/01/21 05:36:42;;;;;;;;;5.75;2.50;;;;;-143.72;100.00;60182.97;5033499;28;46439;-82
2022/01/21 05:39:09;;;;;;;;;1.50;1.00;;;;;-143.72;100.00;60182.97;5033537;28;45460;-83
2022/01/21 05:41:34;;;;;;;;;3.00;2.00;;;;;-143.72;100.00;60182.97;5050036;28;45610;-83
2022/01/21 05:44:04;;;;;;;;;6.50;3.00;;;;;-143.72;100.00;60182.97;5053109;28;45645;-83
2022/01/21 05:46:55;;;;;;;;;6.00;2.75;;;;;-143.72;100.00;60182.97;5032350;28;47564;-83
2022/01/21 05:49:18;;;;;;;;;5.00;1.50;;;;;-143.72;100.00;60182.97;5053740;28;45572;-82
2022/01/21 05:51:44;;;;;;;;;7.00;1.50;;;;;-143.72;100.00;60182.97;5032443;28;45628;-82
2022/01/21 05:54:10;;;;;;;;;1.50;1.50;;;;;-143.72;100.00;60182.97;5023013;28;45626;-83
2022/01/21 05:56:37;;;;;;;;;2.75;2.00;;;;;-143.72;100.00;60182.97;5053333;28;45297;-83
2022/01/21 05:59:04;;;;;;;;;5.75;2.25;;;;;-143.72;100.00;60182.97;5053457;28;45450;-82
2022/01/21 06:01:31;;;;;;;;;3.00;3.00;;;;;-143.72;100.00;60182.97;5051733;28;45863;-82
2022/01/21 06:03:56;;;;;;;;;3.00;2.00;;;;;-143.72;100.00;60182.97;5053611;28;45542;-82
2022/01/21 06:06:22;;;;;;;;;4.50;3.50;;;;;-143.72;100.00;60182.97;5052860;28;46338;-82
2022/01/21 06:08:47;;;;;;;;;6.75;3.75;;;;;-143.72;100.00;60182.97;5046808;28;45406;-84
2022/01/21 06:11:12;;;;;;;;;6.25;3.00;;;;;-143.72;100.00;60182.97;5053522;28;45342;-83
2022/01/21 06:13:39;;;;;;;;;5.00;2.00;;;;;-143.72;100.00;60182.97;5051521;28;45549;-84
2022/01/21 06:16:04;;;;;;;;;8.25;3.00;;;;;-143.72;100.00;60182.97;5032423;28;47554;-83
2022/01/21 06:18:30;;;;;;;;;4.50;3.50;;;;;-143.72;100.00;60182.97;5034412;28;45371;-83
2022/01/21 06:20:55;;;;;;;;;3.00;3.00;;;;;-143.72;100.00;60182.97;5053245;28;45408;-84
2022/01/21 06:23:20;;;;;;;;;6.75;2.50;;;;;-143.72;100.00;60182.97;5052311;28;45600;-83
2022/01/21 06:25:46;;;;;;;;;9.25;4.00;;;;;-143.72;100.00;60182.97;5053255;28;46326;-83
2022/01/21 06:28:11;;;;;;;;;4.25;3.75;;;;;-143.72;100.00;60182.97;5048863;28;45368;-83
2022/01/21 06:30:37;;;;;;;;;6.75;4.00;;;;;-143.72;100.00;60182.97;5052273;28;45781;-83
2022/01/21 06:33:03;;;;;;;;;2.75;1.25;;;;;-143.72;100.00;60182.97;5032300;28;45598;-83
2022/01/21 06:35:28;;;;;;;;;7.50;7.25;;;;;-143.72;100.00;60182.97;5053026;28;46271;-83
2022/01/21 06:37:54;;;;;;;;;5.50;3.00;;;;;-143.72;100.00;60182.97;5050891;28;45376;-83
2022/01/21 06:40:20;;;;;;;;;12.25;7.00;;;;;-143.72;100.00;60182.97;5047880;28;45384;-83
2022/01/21 06:43:00;;;;;;;;;9.25;4.00;;;;;-143.72;100.00;60182.97;5051788;28;45599;-83
2022/01/21 06:45:26;;;;;;;;;12.75;7.00;;;;;-143.72;100.00;60182.97;5029514;28;47276;-83
2022/01/21 06:47:51;;;;;;;;;4.50;4.25;;;;;-143.72;100.00;60182.97;5043412;28;45606;-81
2022/01/21 06:50:16;;;;;;;;;6.50;6.00;;;;;-143.72;100.00;60182.97;5033382;28;45554;-81
2022/01/21 06:52:42;;;;;;;;;8.75;7.00;;;;;-143.72;100.00;60182.97;5032027;28;45689;-81
2022/01/21 06:55:07;;;;;;;;;7.25;7.25;;;;;-143.72;100.00;60182.97;5031899;28;46213;-83
2022/01/21 06:57:37;;;;;;;;;10.25;7.25;;;;;-143.72;100.00;60182.97;5048968;28;45542;-82
2022/01/21 07:00:03;;;;;;;;;7.00;4.00;;;;;-143.72;100.00;60182.97;5053079;28;45445;-83
2022/01/21 07:02:29;;;;;;;;;7.75;4.75;;;;;-143.72;100.00;60182.97;5051823;28;45544;-83
2022/01/21 07:04:54;;;;;;;;;7.50;5.00;;;;;-143.72;100.00;60182.97;5053629;28;45416;-82
2022/01/21 07:07:21;;;;;;;;;11.00;7.00;;;;;-143.72;100.00;60182.97;5052529;28;45494;-82
2022/01/21 07:09:46;;;;;;;;;7.75;4.50;;;;;-143.72;100.00;60182.97;5052941;28;45452;-83
2022/01/21 07:12:11;;;;;;;;;7.75;3.25;;;;;-143.72;100.00;60182.97;5051394;28;45548;-83
2022/01/21 07:14:37;;;;;;;;;8.75;4.50;;;;;-143.72;100.00;60182.97;5052860;28;45349;-83
2022/01/21 07:17:03;;;;;;;;;11.25;6.00;;;;;-143.72;100.00;60182.97;5053799;28;45484;-83
2022/01/21 07:19:28;;;;;;;;;10.00;4.00;;;;;-143.72;100.00;60182.97;5051309;28;45303;-82
2022/01/21 07:21:54;;;;;;;;;11.50;6.00;;;;;-143.72;100.00;60182.97;5031455;28;45556;-83
2022/01/21 07:24:19;;;;;;;;;4.00;4.00;;;;;-143.72;100.00;60182.97;5050568;28;46192;-84
2022/01/21 07:26:44;;;;;;;;;9.50;7.00;;;;;-143.72;100.00;60182.97;5051913;28;45300;-83
2022/01/21 07:29:10;;;;;;;;;28.00;19.50;;;;;-143.72;100.00;60182.97;5052303;28;45315;-83
2022/01/21 07:31:36;;;;;;;;;19.00;15.50;;;;;-143.72;100.00;60182.97;5047349;28;45412;-84
2022/01/21 07:34:04;;;;;;;;;17.75;16.25;;;;;-143.72;100.00;60182.97;5022029;28;47433;-82
2022/01/21 07:36:31;;;;;;;;;23.00;14.50;;;;;-143.72;100.00;60182.97;5046648;28;45844;-84
2022/01/21 07:38:57;;;;;;;;;16.25;14.25;;;;;-143.72;100.00;60182.97;5051870;28;45477;-83
2022/01/21 07:41:22;;;;;;;;;23.25;14.25;;;;;-143.72;100.00;60182.97;5030320;28;45583;-83
2022/01/21 07:43:47;;;;;;;;;21.75;16.50;;;;;-143.72;100.00;60182.97;5053135;28;46464;-83
2022/01/21 07:46:13;;;;;;;;;11.75;6.00;;;;;-143.72;100.00;60182.97;5053753;28;45284;-83
2022/01/21 07:48:38;;;;;;;;;19.00;12.50;;;;;-143.72;100.00;60182.97;5056007;28;45443;-83
2022/01/21 07:51:04;;;;;;;;;14.50;13.00;;;;;-143.72;100.00;60182.97;5055806;28;45507;-83
2022/01/21 07:53:30;;;;;;;;;27.25;20.50;;;;;-143.72;100.00;60182.97;5055117;28;45940;-82
2022/01/21 07:55:55;;;;;;;;;19.25;18.00;;;;;-143.72;100.00;60182.97;5056528;28;45448;-82
2022/01/21 07:58:21;;;;;;;;;17.75;12.50;;;;;-143.72;100.00;60182.97;5054086;28;45493;-83
2022/01/21 08:00:48;;;;;;;;;7.75;7.00;;;;;-143.72;100.00;60182.97;5055048;28;45526;-81
2022/01/21 08:03:14;;;;;;;;;12.50;8.75;;;;;-143.72;100.00;60182.97;5055728;28;46371;-79
2022/01/21 08:05:42;;;;;;;;;15.75;9.00;;;;;-143.72;100.00;60182.97;5055310;28;45344;-80
2022/01/21 08:08:07;;;;;;;;;16.00;9.25;;;;;-143.72;100.00;60182.97;5050680;28;45504;-79
2022/01/21 08:10:33;;;;;;;;;11.25;7.00;;;;;-143.72;100.00;60182.97;5053036;28;45468;-80
2022/01/21 08:13:00;;;;;;;;;64.67;47.67;;;;;-143.72;100.00;60182.97;5051975;28;47347;-78
2022/01/21 08:15:26;;;;;;;;;27.50;20.75;;;;;-143.72;100.00;60182.97;5058211;28;45585;-80
2022/01/21 08:17:51;;;;;;;;;13.25;7.25;;;;;-143.72;100.00;60182.97;5052805;28;45553;-80
2022/01/21 08:20:17;;;;;;;;;14.50;9.00;;;;;-143.72;100.00;60182.97;5056224;28;45347;-80
2022/01/21 08:22:42;;;;;;;;;13.25;8.75;;;;;-143.72;100.00;60182.97;5051852;28;45558;-80
2022/01/21 08:25:08;;;;;;;;;17.50;7.75;;;;;-143.72;100.00;60182.97;5047339;28;45306;-80
2022/01/21 08:27:34;;;;;;;;;15.75;10.00;;;;;-143.72;100.00;60182.97;5052201;28;51238;-78
2022/01/21 08:30:00;;;;;;;;;12.00;10.25;;;;;-143.72;100.00;60182.97;5053210;28;45598;-79
2022/01/21 08:32:25;;;;;;;;;16.75;7.00;;;;;-143.72;100.00;60182.97;5053496;28;46193;-79
2022/01/21 08:34:51;;;;;;;;;17.50;8.00;;;;;-143.72;100.00;60182.97;5055090;28;45482;-78
2022/01/21 08:37:17;;;;;;;;;12.00;9.00;;;;;-143.72;100.00;60182.97;5052007;28;45408;-80
2022/01/21 08:39:43;;;;;;;;;16.75;9.25;;;;;-143.72;100.00;60182.97;5032392;28;45415;-82
2022/01/21 08:42:09;;;;;;;;;6.50;6.00;;;;;-143.72;100.00;60182.97;5012413;28;47336;-80
2022/01/21 08:44:35;;;;;;;;;8.75;7.00;;;;;-143.72;100.00;60182.97;5029464;28;45635;-80
2022/01/21 08:47:01;;;;;;;;;11.25;8.25;;;;;-143.72;100.00;60182.97;5028519;28;45495;-80
2022/01/21 08:49:26;;;;;;;;;13.50;8.00;;;;;-143.72;100.00;60182.97;5033216;28;45413;-79
2022/01/21 08:51:55;;;;;;;;;13.25;7.50;;;;;-143.72;100.00;60182.97;5010091;28;47447;-80
2022/01/21 08:54:21;;;;;;;;;9.50;8.00;;;;;-143.72;100.00;60182.97;5009325;28;45472;-79
2022/01/21 08:56:48;;;;;;;;;9.00;6.50;;;;;-143.72;100.00;60182.97;5028252;28;45523;-80
2022/01/21 08:59:14;;;;;;;;;54.75;45.25;;;;;-143.72;100.00;60182.97;5016489;28;45459;-77
2022/01/21 09:01:40;;;;;;;;;30.50;24.50;;;;;-143.72;100.00;60182.97;5027624;28;45377;-80
2022/01/21 09:04:05;;;;;;;;;16.00;8.00;;;;;-143.72;100.00;60182.97;5026515;28;45514;-79
2022/01/21 09:06:31;;;;;;;;;10.25;8.75;;;;;-143.72;100.00;60182.97;5034070;28;45545;-81
2022/01/21 09:08:57;;;;;;;;;6.75;6.75;;;;;-143.72;100.00;60182.97;5013019;28;45789;-79
2022/01/21 09:11:23;;;;;;;;;11.75;8.75;;;;;-143.72;100.00;60182.97;5029024;28;45745;-79
2022/01/21 09:13:50;;;;;;;;;13.25;6.50;;;;;-143.72;100.00;60182.97;5013964;28;45811;-79
2022/01/21 09:16:17;;;;;;;;;9.00;9.00;;;;;-143.72;100.00;60182.97;5032756;28;45495;-80
2022/01/21 09:21:13;;;;;;;;;10.25;7.00;;;;;-143.72;100.00;60182.97;5030231;28;46199;-81
2022/01/21 09:23:40;;;;;;;;;8.00;6.50;;;;;-143.72;100.00;60182.97;5031403;28;45415;-79
2022/01/21 09:26:06;;;;;;;;;7.75;6.75;;;;;-143.72;100.00;60182.97;5033631;28;45500;-79
2022/01/21 09:28:33;;;;;;;;;10.75;7.75;;;;;-143.72;100.00;60182.97;5013250;28;45445;-79
2022/01/21 09:30:58;;;;;;;;;6.50;3.75;;;;;-143.72;100.00;60182.97;5012574;28;46277;-79
2022/01/21 09:33:24;;;;;;;;;3.00;2.25;;;;;-143.72;100.00;60182.97;5031381;28;45373;-79
2022/01/21 09:35:49;;;;;;;;;12.25;7.25;;;;;-143.72;100.00;60182.97;5031289;28;45297;-79
2022/01/21 09:38:16;;;;;;;;;10.75;9.50;;;;;-143.72;100.00;60182.97;5034422;28;45474;-79
2022/01/21 09:40:48;;;;;;;;;9.75;7.50;;;;;-143.72;100.00;60182.97;5039571;28;45507;-79
2022/01/21 09:43:14;;;;;;;;;9.25;7.00;;;;;-143.72;100.00;60182.97;5031590;28;45522;-79
2022/01/21 09:45:46;;;;;;;;;11.00;9.00;;;;;-143.72;100.00;60182.97;5049060;28;45598;-79
2022/01/21 09:48:20;;;;;;;;;7.50;7.00;;;;;-143.72;100.00;60182.97;5033769;28;45369;-79
2022/01/21 09:50:47;;;;;;;;;9.50;9.50;;;;;-143.72;100.00;60182.97;5050800;28;45462;-78
2022/01/21 09:53:13;;;;;;;;;13.50;8.00;;;;;-143.72;100.00;60182.97;5054347;28;45309;-78
2022/01/21 09:55:39;;;;;;;;;12.50;9.75;;;;;-143.72;100.00;60182.97;5050561;28;45443;-80
2022/01/21 09:58:07;;;;;;;;;8.25;8.00;;;;;-143.72;100.00;60182.97;5050674;28;45350;-79
2022/01/21 10:00:34;;;;;;;;;8.33;7.67;;;;;-143.72;100.00;60182.97;5050938;28;46745;-79
2022/01/21 10:03:04;;;;;;;;;14.00;10.00;;;;;-143.72;100.00;60182.97;5051450;28;45540;-79
2022/01/21 10:05:30;;;;;;;;;11.75;9.25;;;;;-143.72;100.00;60182.97;5053098;28;45455;-79
2022/01/21 10:07:59;;;;;;;;;9.00;7.75;;;;;-143.72;100.00;60182.97;5051701;28;45289;-79
2022/01/21 10:10:24;;;;;;;;;12.75;9.75;;;;;-143.72;100.00;60182.97;5046089;28;46119;-79
2022/01/21 10:12:50;;;;;;;;;18.75;10.75;;;;;-143.72;100.00;60182.97;5050388;28;46292;-79
2022/01/21 10:15:16;;;;;;;;;15.75;8.00;;;;;-143.72;100.00;60182.97;5051199;28;45497;-78
2022/01/21 10:18:04;;;;;;;;;11.75;8.25;;;;;-143.72;100.00;60182.97;5051687;28;45695;-77
2022/01/21 10:20:29;;;;;;;;;10.00;10.00;;;;;-143.72;100.00;60182.97;5038557;28;45714;-77
2022/01/21 10:23:09;;;;;;;;;12.75;5.50;;;;;-143.72;100.00;60182.97;5051203;28;45359;-77
2022/01/21 10:25:37;;;;;;;;;16.00;11.00;;;;;-143.72;100.00;60182.97;5051567;28;45514;-77
2022/01/21 10:28:16;;;;;;;;;11.50;10.00;;;;;-143.72;100.00;60182.97;5027446;28;45499;-77
2022/01/21 10:30:42;;;;;;;;;13.75;12.50;;;;;-143.72;100.00;60182.97;5041398;28;46021;-78
2022/01/21 10:33:25;;;;;;;;;11.00;9.00;;;;;-143.72;100.00;60182.97;5050404;28;45358;-77
2022/01/21 10:36:21;;;;;;;;;15.00;8.00;;;;;-143.72;100.00;60182.97;5049266;28;45565;-79
2022/01/21 10:38:49;;;;;;;;;14.00;8.00;;;;;-143.72;100.00;60182.97;5050812;28;45496;-81
2022/01/21 10:41:17;;;;;;;;;9.25;7.75;;;;;-143.72;100.00;60182.97;5049661;28;46188;-82
2022/01/21 10:43:43;;;;;;;;;8.00;7.50;;;;;-143.72;100.00;60182.97;5049897;28;45518;-84
2022/01/21 10:46:15;;;;;;;;;7.25;7.00;;;;;-143.72;100.00;60182.97;5052086;28;45411;-85
2022/01/21 10:48:55;;;;;;;;;8.00;6.50;;;;;-143.72;100.00;60182.97;5049487;28;45339;-82
2022/01/21 10:51:25;;;;;;;;;9.25;7.50;;;;;-143.72;100.00;60182.97;5047683;28;47362;-82
2022/01/21 10:53:54;;;;;;;;;9.50;9.50;;;;;-143.72;100.00;60182.97;5034401;28;45674;-82
2022/01/21 10:56:21;;;;;;;;;5.50;4.50;;;;;-143.72;100.00;60182.97;5036066;28;45428;-82
2022/01/21 10:58:51;;;;;;;;;19.75;18.25;;;;;-143.72;100.00;60182.97;5047805;28;45888;-81
2022/01/21 11:01:17;;;;;;;;;123.67;102.33;;;;;-143.72;100.00;60182.97;5031287;28;47376;-75
2022/01/21 11:03:56;;;;;;;;;11.75;7.50;;;;;-143.72;100.00;60182.97;5049121;28;45372;-82
2022/01/21 11:06:24;;;;;;;;;13.25;8.00;;;;;-143.72;100.00;60182.97;5051084;28;45404;-83
2022/01/21 11:12:07;;;;;;;;;10.25;9.75;;;;;-143.72;100.00;60182.97;5001423;28;45480;-81
2022/01/21 11:14:34;;;;;;;;;13.50;10.50;;;;;-143.72;100.00;60182.97;5008875;28;45494;-88
2022/01/21 11:17:09;;;;;;;;;17.00;12.00;;;;;-143.72;100.00;60182.97;5012683;28;45434;-89
2022/01/21 11:19:35;;;;;;;;;14.50;11.00;;;;;-143.72;100.00;60182.97;5007826;28;45357;-88
2022/01/21 11:22:04;;;;;;;;;8.25;6.75;;;;;-143.72;100.00;60182.97;4994584;28;46036;-85
2022/01/21 11:24:30;;;;;;;;;9.50;6.00;;;;;-143.72;100.00;60182.97;5013627;28;45531;-88
2022/01/21 11:27:13;;;;;;;;;8.75;5.00;;;;;-143.72;100.00;60182.97;5011662;28;45546;-87
2022/01/21 11:29:39;;;;;;;;;17.00;6.00;;;;;-143.72;100.00;60182.97;4996686;28;45447;-89
2022/01/21 11:32:06;;;;;;;;;7.50;6.25;;;;;-143.72;100.00;60182.97;5013866;28;46259;-85
2022/01/21 11:34:33;;;;;;;;;4.25;4.25;;;;;-143.72;100.00;60182.97;4993889;28;45910;-88
2022/01/21 11:36:59;;;;;;;;;15.75;5.25;;;;;-143.72;100.00;60182.97;5012707;28;47932;-89
2022/01/21 11:39:25;;;;;;;;;10.50;7.75;;;;;-143.72;100.00;60182.97;5017047;28;45431;-88
2022/01/21 11:41:54;;;;;;;;;11.75;5.00;;;;;-143.72;100.00;60182.97;5010772;28;46230;-90
2022/01/21 11:44:22;;;;;;;;;7.25;5.00;;;;;-143.72;100.00;60182.97;4997592;28;46166;-86
2022/01/21 11:49:59;;;;;;;;;7.00;5.50;;;;;-143.72;100.00;60182.97;4986502;28;45921;-80
2022/01/21 11:52:25;;;;;;;;;4.75;4.50;;;;;-143.72;100.00;60182.97;4990206;28;46161;-83
2022/01/21 11:54:50;;;;;;;;;3.75;3.75;;;;;-143.72;100.00;60182.97;4991261;28;45663;-81
2022/01/21 11:57:27;;;;;;;;;7.75;5.75;;;;;-143.72;100.00;60182.97;4978302;28;45725;-83
2022/01/21 12:00:07;;;;;;;;;5.00;4.00;;;;;-143.72;100.00;60182.97;4984313;28;46245;-86
2022/01/21 12:02:34;;;;;;;;;9.25;7.25;;;;;-143.72;100.00;60182.97;4991066;28;47541;-85